Terminal Aerodrome Forecast
Issued by NWS

Home | Current Version | Previous Version | Text Only | Print | Product List | Glossary Off
Versions: 1 2 3 4 5 6 7 8 9 10 11 12 13 14

000
FTUS43 KBIS 290521
TAFJMS
TAF
KJMS 290521Z 2906/3006 30006KT 6SM HZ SCT100
     FM291400 31013KT P6SM SCT100
     FM291700 33015G22KT P6SM SCT070
     FM300000 03008KT P6SM FEW070=

USA.gov is the U.S. government's official web portal to all federal, state and local government web resources and services.